createdAt,value
2022-11-12T00:01:20.359Z,6.33
2022-11-12T00:06:21.873Z,6.29
2022-11-12T00:11:23.338Z,6.40
2022-11-12T00:16:24.759Z,6.29
2022-11-12T00:21:26.239Z,6.28
2022-11-12T00:26:27.698Z,6.36
2022-11-12T00:31:29.228Z,6.63
2022-11-12T00:36:30.849Z,6.80
2022-11-12T00:41:32.245Z,6.62
2022-11-12T00:46:33.697Z,6.45
2022-11-12T00:51:35.313Z,6.16
2022-11-12T00:56:36.863Z,6.26
2022-11-12T01:01:38.621Z,6.16
2022-11-12T01:06:40.768Z,6.16
2022-11-12T01:11:42.241Z,6.17
2022-11-12T01:16:43.838Z,6.14
2022-11-12T01:21:45.363Z,6.36
2022-11-12T01:26:48.111Z,6.19
2022-11-12T01:31:49.603Z,6.36
2022-11-12T01:36:51.078Z,6.33
2022-11-12T01:41:52.517Z,6.61
2022-11-12T01:47:10.685Z,6.70
2022-11-12T01:52:29.436Z,6.57
2022-11-12T01:57:38.126Z,6.43
2022-11-12T02:02:40.560Z,6.18
2022-11-12T02:07:44.578Z,6.16
2022-11-12T02:12:46.654Z,6.16
2022-11-12T02:17:48.185Z,6.14
2022-11-12T02:22:49.617Z,6.23
2022-11-12T02:27:54.026Z,6.09
2022-11-12T02:32:55.504Z,5.89
2022-11-12T02:37:56.965Z,5.99
2022-11-12T02:42:58.497Z,6.22
2022-11-12T02:48:00.045Z,6.21
2022-11-12T02:53:01.464Z,6.09
2022-11-12T02:58:02.943Z,6.29
2022-11-12T03:03:04.638Z,6.09
2022-11-12T03:08:08.632Z,6.12
2022-11-12T03:13:10.146Z,5.91
2022-11-12T03:18:11.754Z,6.06
2022-11-12T03:23:13.229Z,6.02
2022-11-12T03:28:16.373Z,5.86
2022-11-12T03:33:17.823Z,5.95
2022-11-12T03:38:19.291Z,6.15
2022-11-12T03:43:20.827Z,6.35
2022-11-12T03:48:22.553Z,6.42
2022-11-12T03:53:24.631Z,6.05
2022-11-12T03:58:26.389Z,5.85
2022-11-12T04:03:28.070Z,6.10
2022-11-12T04:08:29.561Z,5.95
2022-11-12T04:13:31.211Z,5.99
2022-11-12T04:18:32.678Z,5.91
2022-11-12T04:23:34.107Z,5.90
2022-11-12T04:28:35.525Z,6.12
2022-11-12T04:33:37.035Z,5.84
2022-11-12T04:38:38.567Z,5.82
2022-11-12T04:43:39.965Z,6.09
2022-11-12T04:48:41.473Z,5.89
2022-11-12T04:53:42.988Z,5.94
2022-11-12T04:58:44.571Z,5.92
2022-11-12T05:03:46.053Z,5.77
2022-11-12T05:08:47.563Z,5.95
2022-11-12T05:13:49.006Z,5.71
2022-11-12T05:18:50.542Z,5.86
2022-11-12T05:23:51.959Z,5.91
2022-11-12T05:28:53.416Z,5.87
2022-11-12T05:33:54.827Z,5.90
2022-11-12T05:38:56.333Z,5.94
2022-11-12T05:43:57.805Z,5.88
2022-11-12T05:48:59.270Z,5.88
2022-11-12T05:54:01.190Z,5.96
2022-11-12T05:59:05.487Z,5.93
2022-11-12T06:04:07.012Z,5.69
2022-11-12T06:09:09.325Z,5.62
2022-11-12T06:14:10.832Z,5.66
2022-11-12T06:19:12.333Z,5.58
2022-11-12T06:24:13.839Z,5.67
2022-11-12T06:29:15.294Z,5.80
2022-11-12T06:34:16.737Z,5.68
2022-11-12T06:39:18.194Z,5.68
2022-11-12T06:44:22.354Z,5.70
2022-11-12T06:49:24.070Z,5.75
2022-11-12T06:54:25.624Z,5.95
2022-11-12T06:59:27.109Z,5.83
2022-11-12T07:04:28.701Z,5.50
2022-11-12T07:09:30.132Z,5.57
2022-11-12T07:14:31.561Z,5.91
2022-11-12T07:19:32.989Z,5.96
2022-11-12T07:24:34.502Z,5.79
2022-11-12T07:29:47.574Z,5.78
2022-11-12T07:34:49.997Z,5.63
2022-11-12T07:39:51.445Z,5.62
2022-11-12T07:44:52.924Z,5.81
2022-11-12T07:49:54.407Z,5.63
2022-11-12T07:54:55.874Z,5.77
2022-11-12T07:59:57.335Z,5.81
2022-11-12T08:04:58.911Z,5.89
2022-11-12T08:10:00.390Z,5.92
2022-11-12T08:15:01.841Z,6.07
2022-11-12T08:20:03.548Z,6.15
2022-11-12T08:25:05.381Z,6.25
2022-11-12T08:30:07.790Z,6.04
2022-11-12T08:35:09.318Z,6.29
2022-11-12T08:40:11.560Z,6.57
2022-11-12T08:45:13.132Z,6.40
2022-11-12T08:50:14.672Z,6.61
2022-11-12T08:55:16.155Z,6.78
2022-11-12T09:00:18.048Z,6.80
2022-11-12T09:05:19.540Z,6.83
2022-11-12T09:10:20.916Z,7.10
2022-11-12T11:34:16.793Z,8.81
2022-11-12T11:39:53.829Z,9.13
2022-11-12T11:57:10.635Z,9.00
2022-11-12T12:02:26.517Z,9.04
2022-11-12T12:08:03.201Z,9.18
2022-11-12T12:13:38.806Z,8.95
2022-11-12T12:24:38.185Z,8.96
2022-11-12T12:29:53.697Z,9.26
2022-11-12T12:35:21.574Z,9.31
2022-11-12T15:23:53.051Z,9.63
2022-11-12T19:55:50.166Z,8.34
2022-11-12T20:00:51.838Z,8.22
2022-11-12T20:05:53.311Z,8.15
2022-11-12T20:10:54.835Z,8.40
2022-11-12T20:15:56.407Z,8.42
2022-11-12T20:20:58.095Z,8.35
2022-11-12T20:26:08.767Z,8.03
2022-11-12T20:31:15.985Z,8.11
2022-11-12T20:36:21.728Z,7.96
2022-11-12T20:41:24.091Z,7.87
2022-11-12T20:46:26.721Z,8.05
2022-11-12T20:51:28.359Z,7.91
2022-11-12T20:56:30.742Z,7.77
2022-11-12T21:01:32.382Z,7.76
2022-11-12T21:06:33.921Z,7.77
2022-11-12T21:11:35.341Z,7.84
2022-11-12T21:16:36.728Z,7.93
2022-11-12T21:21:38.153Z,7.83
2022-11-12T21:26:39.745Z,7.79
2022-11-12T21:31:41.184Z,7.56
2022-11-12T21:36:42.809Z,7.48
2022-11-12T21:41:44.246Z,7.37
2022-11-12T21:46:45.649Z,7.26
2022-11-12T21:51:47.070Z,7.44
2022-11-12T21:56:48.488Z,7.11
2022-11-12T22:01:49.925Z,7.25
2022-11-12T22:06:51.396Z,7.39
2022-11-12T22:11:52.871Z,7.19
2022-11-12T22:16:54.276Z,7.14
2022-11-12T22:21:55.670Z,7.07
2022-11-12T22:26:58.941Z,7.20
2022-11-12T22:32:04.299Z,7.20
2022-11-12T22:37:05.806Z,7.33
2022-11-12T22:42:07.328Z,7.09
2022-11-12T22:47:08.797Z,7.21
2022-11-12T22:52:10.192Z,6.98
2022-11-12T22:57:11.627Z,7.22
2022-11-12T23:02:13.105Z,7.08
2022-11-12T23:07:14.698Z,7.40
2022-11-12T23:12:16.241Z,7.53
2022-11-12T23:17:17.718Z,7.40
2022-11-12T23:22:19.217Z,7.20
2022-11-12T23:27:20.614Z,7.28
2022-11-12T23:32:22.115Z,7.34
2022-11-12T23:37:23.578Z,7.25
2022-11-12T23:42:25.091Z,7.31
2022-11-12T23:47:26.774Z,7.23
2022-11-12T23:52:28.247Z,7.32
2022-11-12T23:57:29.691Z,7.36
